createdAt,value
2023-04-27T00:04:37.774Z,59.66
2023-04-27T00:09:58.568Z,59.29
2023-04-27T00:15:19.362Z,59.65
2023-04-27T00:20:40.750Z,59.50
2023-04-27T00:26:01.829Z,59.34
2023-04-27T00:31:22.405Z,59.52
2023-04-27T00:36:43.435Z,59.36
2023-04-27T00:42:04.035Z,60.05
2023-04-27T00:47:25.097Z,59.65
2023-04-27T00:52:46.015Z,59.32
2023-04-27T00:58:06.642Z,60.56
2023-04-27T01:03:27.337Z,60.64
2023-04-27T01:08:48.271Z,61.06
2023-04-27T01:14:08.834Z,60.72
2023-04-27T01:19:29.594Z,60.61
2023-04-27T01:24:50.097Z,60.43
2023-04-27T01:30:11.114Z,60.01
2023-04-27T01:35:31.695Z,59.69
2023-04-27T01:41:01.949Z,59.76
2023-04-27T01:46:24.620Z,59.82
2023-04-27T01:51:45.228Z,60.74
2023-04-27T01:57:05.905Z,60.90
2023-04-27T02:02:27.769Z,60.72
2023-04-27T02:07:49.449Z,60.75
2023-04-27T02:13:10.029Z,60.94
2023-04-27T02:18:32.332Z,60.90
2023-04-27T02:23:52.869Z,60.60
2023-04-27T02:29:13.881Z,60.44
2023-04-27T02:34:35.981Z,60.84
2023-04-27T02:39:57.185Z,60.57
2023-04-27T02:45:17.953Z,60.89
2023-04-27T02:50:44.345Z,61.54
2023-04-27T02:56:05.245Z,62.53
2023-04-27T03:01:25.777Z,62.44
2023-04-27T03:06:46.256Z,61.77
2023-04-27T03:12:07.765Z,62.31
2023-04-27T03:17:28.818Z,61.56
2023-04-27T03:22:49.841Z,61.65
2023-04-27T03:28:12.755Z,61.21
2023-04-27T03:33:34.001Z,61.24
2023-04-27T03:38:55.038Z,61.00
2023-04-27T03:44:15.744Z,60.83
2023-04-27T03:49:36.497Z,60.51
2023-04-27T03:54:57.262Z,60.57
2023-04-27T04:00:18.712Z,60.45
2023-04-27T04:05:43.184Z,60.32
2023-04-27T04:11:04.010Z,59.27
2023-04-27T04:16:24.876Z,59.24
2023-04-27T04:21:46.901Z,59.49
2023-04-27T04:27:07.843Z,58.74
2023-04-27T04:32:29.868Z,59.07
2023-04-27T04:37:50.459Z,58.88
2023-04-27T04:43:11.116Z,58.67
2023-04-27T04:48:32.323Z,58.81
2023-04-27T04:53:52.906Z,57.95
2023-04-27T04:59:13.812Z,58.16
2023-04-27T05:04:34.356Z,57.79
2023-04-27T05:09:55.083Z,57.89
2023-04-27T05:15:15.964Z,57.37
2023-04-27T05:20:37.362Z,57.10
2023-04-27T05:25:57.905Z,56.59
2023-04-27T05:31:18.623Z,56.16
2023-04-27T05:36:39.404Z,56.03
2023-04-27T05:41:59.979Z,55.81
2023-04-27T05:47:21.147Z,55.47
2023-04-27T05:52:41.896Z,55.19
2023-04-27T05:58:08.464Z,55.41
2023-04-27T06:03:31.238Z,55.35
2023-04-27T06:08:52.753Z,55.13
2023-04-27T06:15:30.029Z,54.99
2023-04-27T06:20:50.415Z,54.94
2023-04-27T06:26:11.057Z,54.85
2023-04-27T06:31:31.731Z,54.35
2023-04-27T06:36:52.354Z,53.73
2023-04-27T06:42:12.994Z,53.41
2023-04-27T06:47:33.708Z,54.00
2023-04-27T06:52:54.155Z,54.09
2023-04-27T06:58:15.232Z,53.49
2023-04-27T07:03:36.585Z,53.48
2023-04-27T07:08:57.598Z,52.45
2023-04-27T07:14:17.902Z,52.05
2023-04-27T07:19:39.057Z,52.36
2023-04-27T07:25:00.276Z,52.51
2023-04-27T07:30:21.540Z,52.76
2023-04-27T07:35:42.367Z,51.84
2023-04-27T07:41:03.047Z,50.81
2023-04-27T07:46:23.763Z,51.89
2023-04-27T07:51:44.448Z,50.93
2023-04-27T07:57:10.198Z,49.46
2023-04-27T08:02:31.662Z,49.76
2023-04-27T08:07:54.190Z,50.41
2023-04-27T08:13:15.185Z,50.44
2023-04-27T08:18:36.039Z,49.77
2023-04-27T08:23:56.743Z,49.32
2023-04-27T08:29:27.187Z,48.37
2023-04-27T08:34:48.985Z,48.03
2023-04-27T08:40:10.879Z,47.79
2023-04-27T08:45:31.540Z,47.43
2023-04-27T08:50:53.867Z,46.63
2023-04-27T08:56:14.368Z,47.90
2023-04-27T09:01:35.134Z,47.29
2023-04-27T09:06:56.313Z,47.28
2023-04-27T09:12:18.898Z,47.37
2023-04-27T09:17:39.383Z,49.10
2023-04-27T09:23:00.292Z,48.88
2023-04-27T09:28:20.946Z,47.73
2023-04-27T09:33:41.358Z,47.82
2023-04-27T09:39:05.241Z,47.78
2023-04-27T09:44:28.239Z,46.17
2023-04-27T09:49:50.905Z,45.11
2023-04-27T09:55:16.577Z,44.42
2023-04-27T10:01:12.800Z,45.53
2023-04-27T10:06:52.061Z,45.46
2023-04-27T10:12:15.015Z,45.07
2023-04-27T10:17:36.750Z,45.46
2023-04-27T10:22:58.862Z,45.20
2023-04-27T10:28:21.213Z,45.17
2023-04-27T10:33:46.158Z,44.35
2023-04-27T10:39:17.752Z,44.32
2023-04-27T10:44:39.147Z,44.20
2023-04-27T10:50:00.262Z,45.77
2023-04-27T10:55:22.780Z,42.25
2023-04-27T11:00:44.518Z,37.71
2023-04-27T11:06:06.598Z,40.96
2023-04-27T11:11:27.229Z,27.17
2023-04-27T11:16:48.754Z,34.40
2023-04-27T11:22:09.437Z,37.00
2023-04-27T11:27:38.529Z,27.12
2023-04-27T11:32:59.368Z,24.47
2023-04-27T11:38:21.724Z,28.17
2023-04-27T11:43:49.236Z,23.06
2023-04-27T11:49:09.676Z,18.75
2023-04-27T11:54:30.375Z,17.06
2023-04-27T11:59:50.960Z,13.83
2023-04-27T12:05:13.176Z,15.83
2023-04-27T12:10:34.447Z,15.72
2023-04-27T12:15:54.851Z,18.16
2023-04-27T12:21:15.809Z,15.45
2023-04-27T12:26:36.678Z,14.35
2023-04-27T12:31:57.168Z,21.46
2023-04-27T12:37:17.842Z,18.23
2023-04-27T12:42:38.277Z,15.60
2023-04-27T12:48:03.869Z,16.26
2023-04-27T12:53:25.077Z,19.33
2023-04-27T12:58:46.264Z,25.00
2023-04-27T13:04:07.376Z,26.68
2023-04-27T13:09:28.088Z,27.10
2023-04-27T13:14:48.796Z,28.68
2023-04-27T13:20:10.080Z,28.90
2023-04-27T13:25:30.750Z,30.53
2023-04-27T13:30:52.019Z,30.79
2023-04-27T13:36:13.225Z,30.79
2023-04-27T13:41:34.906Z,28.84
2023-04-27T13:46:55.449Z,21.08
2023-04-27T13:52:16.144Z,16.50
2023-04-27T13:57:37.897Z,15.06
2023-04-27T14:02:58.476Z,15.40
2023-04-27T14:08:19.399Z,15.52
2023-04-27T14:13:40.388Z,14.39
2023-04-27T14:19:01.006Z,13.68
2023-04-27T14:24:21.678Z,14.27
2023-04-27T14:29:42.152Z,14.58
2023-04-27T14:35:03.518Z,14.83
2023-04-27T14:40:24.124Z,16.39
2023-04-27T14:45:51.538Z,17.37
2023-04-27T14:51:14.887Z,18.24
2023-04-27T14:56:36.641Z,20.64
2023-04-27T15:01:57.226Z,22.62
2023-04-27T15:07:20.063Z,22.68
2023-04-27T15:12:40.742Z,21.42
2023-04-27T15:18:01.996Z,21.13
2023-04-27T15:23:23.705Z,25.92
2023-04-27T15:28:44.239Z,30.65
2023-04-27T15:34:04.968Z,31.55
2023-04-27T15:39:25.336Z,30.15
2023-04-27T15:44:46.139Z,30.77
2023-04-27T15:50:06.816Z,30.97
2023-04-27T15:55:27.175Z,30.32
2023-04-27T16:00:47.732Z,31.62
2023-04-27T16:06:08.120Z,33.21
2023-04-27T16:11:28.423Z,33.41
2023-04-27T16:16:51.242Z,33.77
2023-04-27T16:22:12.234Z,33.47
2023-04-27T16:27:32.834Z,33.64
2023-04-27T16:32:53.310Z,34.36
2023-04-27T16:38:14.109Z,35.33
2023-04-27T16:43:34.721Z,35.79
2023-04-27T16:48:55.849Z,35.96
2023-04-27T16:54:16.638Z,36.00
2023-04-27T16:59:37.524Z,36.23
2023-04-27T17:04:59.536Z,36.77
2023-04-27T17:10:19.793Z,37.29
2023-04-27T17:15:40.337Z,36.92
2023-04-27T17:21:00.838Z,37.41
2023-04-27T17:26:21.681Z,37.92
2023-04-27T17:31:42.669Z,37.71
2023-04-27T17:37:03.421Z,37.76
2023-04-27T17:42:24.007Z,38.24
2023-04-27T17:47:44.523Z,38.95
2023-04-27T17:53:04.967Z,38.96
2023-04-27T17:58:25.589Z,39.02
2023-04-27T18:03:46.316Z,38.96
2023-04-27T18:09:06.700Z,39.33
2023-04-27T18:14:27.437Z,39.68
2023-04-27T18:19:57.941Z,39.55
2023-04-27T18:25:25.949Z,39.83
2023-04-27T18:30:46.547Z,39.80
2023-04-27T18:36:07.898Z,40.04
2023-04-27T18:41:28.238Z,40.21
2023-04-27T18:46:48.802Z,40.57
2023-04-27T18:52:11.447Z,40.82
2023-04-27T18:57:31.832Z,40.72
2023-04-27T19:02:52.645Z,40.90
2023-04-27T19:08:13.465Z,40.90
2023-04-27T19:13:34.069Z,41.01
2023-04-27T19:18:54.432Z,41.40
2023-04-27T19:24:14.952Z,41.54
2023-04-27T19:29:58.159Z,41.77
2023-04-27T19:35:20.177Z,41.66
2023-04-27T19:40:40.745Z,41.67
2023-04-27T19:46:01.921Z,41.87
2023-04-27T19:51:23.086Z,41.94
2023-04-27T19:56:43.339Z,41.85
2023-04-27T20:02:04.289Z,41.92
2023-04-27T20:07:24.997Z,42.40
2023-04-27T20:12:56.298Z,42.41
2023-04-27T20:18:17.688Z,42.60
2023-04-27T20:23:38.607Z,42.68
2023-04-27T20:28:59.227Z,42.86
2023-04-27T20:34:19.960Z,43.18
2023-04-27T20:39:40.290Z,43.34
2023-04-27T20:45:00.710Z,43.81
2023-04-27T20:50:21.080Z,43.84
2023-04-27T20:55:42.646Z,44.16
2023-04-27T21:01:03.313Z,44.23
2023-04-27T21:06:24.420Z,44.41
2023-04-27T21:11:45.129Z,44.68
2023-04-27T21:17:06.116Z,45.15
2023-04-27T21:22:27.842Z,45.49
2023-04-27T21:27:48.630Z,45.81
2023-04-27T21:33:09.418Z,46.23
2023-04-27T21:38:30.127Z,46.83
2023-04-27T21:43:51.177Z,46.74
2023-04-27T21:49:11.824Z,46.32
2023-04-27T21:54:32.469Z,46.51
2023-04-27T21:59:53.066Z,46.32
2023-04-27T22:05:14.314Z,46.46
2023-04-27T22:10:35.041Z,46.70
2023-04-27T22:15:56.049Z,47.58
2023-04-27T22:21:16.890Z,47.61
2023-04-27T22:26:37.515Z,47.32
2023-04-27T22:31:58.004Z,47.47
2023-04-27T22:37:18.389Z,47.45
2023-04-27T22:42:39.116Z,47.61
2023-04-27T22:47:59.858Z,48.14
2023-04-27T22:53:21.067Z,48.29
2023-04-27T22:58:41.628Z,48.19
2023-04-27T23:04:02.502Z,48.09
2023-04-27T23:09:22.696Z,48.03
2023-04-27T23:14:43.412Z,48.03
2023-04-27T23:20:24.186Z,47.87
2023-04-27T23:25:48.176Z,48.14
2023-04-27T23:31:09.037Z,48.14
2023-04-27T23:36:29.447Z,48.15
2023-04-27T23:41:50.050Z,48.10
2023-04-27T23:47:10.343Z,48.02
2023-04-27T23:52:30.724Z,48.24
2023-04-27T23:57:52.330Z,48.13
